Time;durP1;ratioP1;P1;durP2;ratioP2;P2;SDS_P1;SDS_P2;PMS_P1;PMS_P2;Temp;Humidity;BMP_temperature;BMP_pressure;BME280_temperature;BME280_humidity;BME280_pressure;Samples;Min_cycle;Max_cycle;Signal;HPM_P1;HPM_P2
2022/01/14 00:01:00;;;;;;;83.57;31.30;;;6.20;99.90;;;;;;6216666;23;20091;-96
2022/01/14 00:03:26;;;;;;;85.38;34.95;;;6.20;99.90;;;;;;6193030;23;20016;-95
2022/01/14 00:05:52;;;;;;;96.68;35.92;;;6.30;99.90;;;;;;6192943;23;20130;-94
2022/01/14 00:08:19;;;;;;;98.07;34.15;;;6.30;99.90;;;;;;6193879;23;20016;-95
2022/01/14 00:10:49;;;;;;;113.93;35.92;;;6.30;99.90;;;;;;6217400;23;20193;-95
2022/01/14 00:13:39;;;;;;;104.82;34.03;;;6.30;99.90;;;;;;6193646;23;20016;-95
2022/01/14 00:16:05;;;;;;;97.10;29.95;;;6.30;99.90;;;;;;6218426;23;20012;-95
2022/01/14 00:18:31;;;;;;;99.30;35.35;;;6.20;99.90;;;;;;6192291;23;20020;-96
2022/01/14 00:20:57;;;;;;;91.82;31.63;;;6.20;99.90;;;;;;6218294;23;20503;-95
2022/01/14 00:23:28;;;;;;;86.43;34.72;;;6.20;99.90;;;;;;6192799;23;20020;-95
2022/01/14 00:34:06;;;;;;;79.80;34.45;;;6.20;99.90;;;;;;6219765;23;20437;-95
2022/01/14 00:36:32;;;;;;;71.03;29.13;;;6.20;99.90;;;;;;6218020;23;20016;-96
2022/01/14 00:38:58;;;;;;;74.57;33.70;;;6.30;99.90;;;;;;6201038;22;20019;-94
2022/01/14 00:41:24;;;;;;;70.38;33.60;;;6.30;99.90;;;;;;6249221;22;20453;-95
2022/01/14 00:43:56;;;;;;;77.05;33.42;;;6.30;99.90;;;;;;6249849;22;20026;-95
2022/01/14 00:46:22;;;;;;;70.78;32.85;;;6.30;99.90;;;;;;6250842;22;20118;-95
2022/01/14 00:48:47;;;;;;;72.50;30.77;;;6.30;99.90;;;;;;6251590;22;20016;-95
2022/01/14 00:51:13;;;;;;;72.32;33.95;;;6.30;99.90;;;;;;6252293;22;20042;-94
2022/01/14 00:53:38;;;;;;;65.10;31.33;;;6.40;99.90;;;;;;6251857;22;20016;-94
2022/01/14 00:56:20;;;;;;;65.55;28.98;;;6.40;99.90;;;;;;6249435;22;20440;-96
2022/01/14 01:01:29;;;;;;;55.20;26.08;;;6.30;99.90;;;;;;6249527;22;19938;-95
2022/01/14 01:03:55;;;;;;;58.17;29.63;;;6.30;99.90;;;;;;6249912;22;20011;-96
2022/01/14 01:06:21;;;;;;;57.72;30.70;;;6.40;99.90;;;;;;6250623;22;20007;-95
2022/01/14 01:08:49;;;;;;;59.58;29.95;;;6.40;99.90;;;;;;6250407;22;20030;-94
2022/01/14 01:11:17;;;;;;;57.55;29.17;;;6.40;99.90;;;;;;6225139;22;20012;-95
2022/01/14 01:13:49;;;;;;;63.85;30.92;;;6.40;99.90;;;;;;6252187;22;20027;-95
2022/01/14 01:16:14;;;;;;;;;;;6.40;99.90;;;;;;6251256;22;20015;-95
2022/01/14 01:18:40;;;;;;;58.65;29.23;;;6.30;99.90;;;;;;6225269;22;19922;-95
2022/01/14 01:21:06;;;;;;;54.80;26.65;;;6.40;99.90;;;;;;6247669;22;20015;-95
2022/01/14 01:23:31;;;;;;;54.33;29.98;;;6.40;99.90;;;;;;6249926;22;20025;-95
2022/01/14 01:26:08;;;;;;;52.22;26.50;;;6.40;99.90;;;;;;6249664;22;20016;-94
2022/01/14 01:28:40;;;;;;;55.80;29.50;;;6.40;99.90;;;;;;6249215;22;20018;-94
2022/01/14 01:31:34;;;;;;;54.97;30.40;;;6.50;99.90;;;;;;6249555;22;20094;-94
2022/01/14 01:33:51;;;;;;;52.33;28.05;;;6.40;99.90;;;;;;6249242;22;20023;-95
2022/01/14 01:36:16;;;;;;;57.38;29.83;;;6.50;99.90;;;;;;6247919;22;20038;-93
2022/01/14 01:38:42;;;;;;;53.22;26.27;;;6.50;99.90;;;;;;6220222;22;20419;-95
2022/01/14 01:41:11;;;;;;;59.75;30.35;;;6.50;99.90;;;;;;6219834;23;20012;-96
2022/01/14 01:43:38;;;;;;;59.13;30.67;;;6.50;99.90;;;;;;6192875;23;20012;-95
2022/01/14 01:46:04;;;;;;;51.55;28.92;;;6.50;99.90;;;;;;6218600;23;20012;-95
2022/01/14 01:48:29;;;;;;;62.45;29.38;;;6.50;99.90;;;;;;6222761;23;20076;-96
2022/01/14 01:50:57;;;;;;;51.55;27.30;;;6.50;99.90;;;;;;6196343;23;20048;-95
2022/01/14 01:53:23;;;;;;;55.97;30.17;;;6.50;99.90;;;;;;6219014;23;20024;-94
2022/01/14 01:55:49;;;;;;;59.53;30.13;;;6.50;99.90;;;;;;6191542;23;20016;-95
2022/01/14 01:58:14;;;;;;;58.25;31.20;;;6.50;99.90;;;;;;6196192;23;20020;-94
2022/01/14 02:00:40;;;;;;;54.58;29.30;;;6.50;99.90;;;;;;6196486;23;20016;-95
2022/01/14 02:03:07;;;;;;;56.00;30.10;;;6.50;99.90;;;;;;6197120;23;20052;-95
2022/01/14 02:05:33;;;;;;;55.42;30.50;;;6.60;99.90;;;;;;6219552;23;20058;-95
2022/01/14 02:07:59;;;;;;;55.20;29.88;;;6.60;99.90;;;;;;6198762;23;20016;-96
2022/01/14 02:10:25;;;;;;;53.25;31.90;;;6.60;99.90;;;;;;6225299;23;20040;-95
2022/01/14 02:12:53;;;;;;;51.85;28.88;;;6.60;99.90;;;;;;6226869;23;20066;-96
2022/01/14 02:15:30;;;;;;;52.47;30.30;;;6.60;99.90;;;;;;6219891;22;20008;-96
2022/01/14 02:23:23;;;;;;;51.95;30.83;;;6.60;99.90;;;;;;6243093;23;20020;-94
2022/01/14 02:25:49;;;;;;;52.15;29.17;;;6.60;99.90;;;;;;6207075;23;20026;-95
2022/01/14 02:28:20;;;;;;;54.65;31.05;;;6.60;99.90;;;;;;6229074;23;20020;-95
2022/01/14 02:30:47;;;;;;;54.42;28.73;;;6.60;99.90;;;;;;6199343;23;20046;-95
2022/01/14 02:33:15;;;;;;;55.40;32.20;;;6.60;99.90;;;;;;6194200;23;20046;-95
2022/01/14 02:35:44;;;;;;;53.30;29.38;;;6.60;99.90;;;;;;6218436;23;20008;-94
2022/01/14 02:38:11;;;;;;;59.75;34.03;;;6.60;99.90;;;;;;6194165;23;20023;-96
2022/01/14 02:40:38;;;;;;;59.92;33.72;;;6.60;99.90;;;;;;6220886;22;20015;-94
2022/01/14 02:43:06;;;;;;;65.32;34.80;;;6.60;99.90;;;;;;6224569;22;20403;-95
2022/01/14 02:45:34;;;;;;;62.90;32.95;;;6.60;99.90;;;;;;6221621;22;20107;-95
2022/01/14 02:48:01;;;;;;;62.35;33.72;;;6.60;99.90;;;;;;6248933;22;20068;-95
2022/01/14 02:50:36;;;;;;;63.33;33.90;;;6.50;99.90;;;;;;6247046;22;20011;-95
2022/01/14 02:53:12;;;;;;;69.90;35.40;;;6.50;99.90;;;;;;6249610;22;20023;-95
2022/01/14 02:55:43;;;;;;;70.32;34.78;;;6.50;99.90;;;;;;6248810;22;20034;-95
2022/01/14 02:58:09;;;;;;;62.92;34.22;;;6.50;99.90;;;;;;6224980;22;20230;-95
2022/01/14 03:00:35;;;;;;;63.65;34.20;;;6.50;99.90;;;;;;6223043;22;20016;-95
2022/01/14 03:03:04;;;;;;;65.78;33.90;;;6.50;99.90;;;;;;6252887;22;20015;-94
2022/01/14 03:05:30;;;;;;;67.90;34.55;;;6.50;99.90;;;;;;6256382;22;20031;-95
2022/01/14 03:07:57;;;;;;;61.83;31.90;;;6.40;99.90;;;;;;6255212;22;20528;-95
2022/01/14 03:10:23;;;;;;;65.97;33.38;;;6.40;99.90;;;;;;6249940;22;20039;-95
2022/01/14 03:12:48;;;;;;;65.10;31.75;;;6.40;99.90;;;;;;6221594;22;20015;-95
2022/01/14 03:15:15;;;;;;;64.45;34.30;;;6.30;99.90;;;;;;6248370;22;20061;-95
2022/01/14 03:17:42;;;;;;;65.35;32.20;;;6.40;99.90;;;;;;6246917;22;20016;-96
2022/01/14 03:20:11;;;;;;;61.90;33.38;;;6.40;99.90;;;;;;6221862;22;20015;-95
2022/01/14 03:22:41;;;;;;;64.70;32.58;;;6.30;99.90;;;;;;6248319;22;20026;-95
2022/01/14 03:27:53;;;;;;;63.30;32.53;;;6.30;99.90;;;;;;6253062;22;20066;-95
2022/01/14 03:30:19;;;;;;;58.75;33.15;;;6.30;99.90;;;;;;6228939;22;20012;-95
2022/01/14 03:32:45;;;;;;;62.55;31.13;;;6.30;99.90;;;;;;6254303;22;20016;-95
2022/01/14 03:35:12;;;;;;;61.95;32.20;;;6.30;99.90;;;;;;6254043;22;20043;-96
2022/01/14 03:37:39;;;;;;;60.80;28.85;;;6.30;99.90;;;;;;6225609;22;20026;-96
2022/01/14 03:40:06;;;;;;;68.90;32.53;;;6.30;99.90;;;;;;6232032;22;20008;-96
2022/01/14 03:42:32;;;;;;;68.85;32.92;;;6.30;99.90;;;;;;6194230;23;20023;-95
2022/01/14 03:44:58;;;;;;;67.03;33.60;;;6.30;99.90;;;;;;6218851;23;20143;-96
2022/01/14 03:47:24;;;;;;;70.18;34.40;;;6.30;99.90;;;;;;6220193;23;20430;-96
2022/01/14 03:49:50;;;;;;;73.22;35.50;;;6.30;99.90;;;;;;6192467;23;20059;-94
2022/01/14 03:52:16;;;;;;;63.08;32.00;;;6.40;99.90;;;;;;6194746;23;20087;-95
2022/01/14 03:54:42;;;;;;;69.65;33.88;;;6.30;99.90;;;;;;6193555;23;20333;-95
2022/01/14 03:57:08;;;;;;;64.05;31.63;;;6.30;99.90;;;;;;6194165;23;20016;-96
2022/01/14 03:59:33;;;;;;;71.25;35.33;;;6.30;99.90;;;;;;6194332;23;20012;-95
2022/01/14 04:01:59;;;;;;;63.25;32.00;;;6.30;99.90;;;;;;6221405;23;20497;-96
2022/01/14 04:04:25;;;;;;;71.80;33.80;;;6.20;99.90;;;;;;6194254;23;20289;-96
2022/01/14 04:06:50;;;;;;;68.50;33.50;;;6.30;99.90;;;;;;6194016;23;20024;-95
2022/01/14 04:09:16;;;;;;;68.32;34.55;;;6.30;99.90;;;;;;6193932;23;20020;-95
2022/01/14 04:11:45;;;;;;;61.42;29.88;;;6.30;99.90;;;;;;6196118;23;20016;-96
2022/01/14 04:16:52;;;;;;;65.28;31.85;;;6.20;99.90;;;;;;6223554;23;20031;-96
2022/01/14 04:19:18;;;;;;;64.55;30.75;;;6.20;99.90;;;;;;6195290;23;20101;-95
2022/01/14 04:21:44;;;;;;;72.30;34.78;;;6.20;99.90;;;;;;6192951;23;20012;-95
2022/01/14 04:24:10;;;;;;;72.40;35.33;;;6.20;99.90;;;;;;6197738;23;20527;-96
2022/01/14 04:26:35;;;;;;;68.45;32.30;;;6.20;99.90;;;;;;6193616;23;20016;-95
2022/01/14 04:29:02;;;;;;;77.10;36.15;;;6.20;99.90;;;;;;6221511;23;20150;-96
2022/01/14 04:31:27;;;;;;;74.57;32.00;;;6.20;99.90;;;;;;6195770;23;20016;-95
2022/01/14 04:33:53;;;;;;;73.55;36.60;;;6.20;99.90;;;;;;6195817;23;20019;-95
2022/01/14 04:36:19;;;;;;;72.43;34.13;;;6.20;99.90;;;;;;6195695;23;20070;-96
2022/01/14 04:38:44;;;;;;;72.85;31.20;;;6.20;99.90;;;;;;6218041;22;20028;-96
2022/01/14 04:41:10;;;;;;;69.28;34.25;;;6.20;99.90;;;;;;6217985;23;20059;-95
2022/01/14 04:43:36;;;;;;;74.03;35.58;;;6.20;99.90;;;;;;6194303;23;20123;-96
2022/01/14 04:48:34;;;;;;;72.90;34.90;;;6.20;99.90;;;;;;6221055;23;20024;-96
2022/01/14 04:51:02;;;;;;;71.65;31.98;;;6.20;99.90;;;;;;6221048;23;20023;-96
2022/01/14 04:53:28;;;;;;;72.45;34.80;;;6.10;99.90;;;;;;6201725;23;20023;-96
2022/01/14 04:55:55;;;;;;;72.13;35.15;;;6.10;99.90;;;;;;6203339;23;20012;-96
2022/01/14 04:58:22;;;;;;;63.35;30.10;;;6.10;99.90;;;;;;6220481;23;20020;-96
2022/01/14 05:00:48;;;;;;;64.50;32.83;;;6.10;99.90;;;;;;6216299;23;20012;-96
2022/01/14 05:03:14;;;;;;;76.05;35.55;;;6.10;99.90;;;;;;6215066;22;20034;-96
2022/01/14 05:05:43;;;;;;;73.47;34.13;;;6.10;99.90;;;;;;6220482;22;20012;-96
2022/01/14 05:08:18;;;;;;;69.18;33.15;;;6.10;99.90;;;;;;6202341;23;20016;-96
2022/01/14 05:11:00;;;;;;;73.88;34.72;;;6.10;99.90;;;;;;6199136;23;20087;-96
2022/01/14 05:13:26;;;;;;;66.38;33.22;;;6.10;99.90;;;;;;6196966;23;20063;-96
2022/01/14 05:15:53;;;;;;;68.80;33.67;;;6.00;99.90;;;;;;6227688;23;20016;-96
2022/01/14 05:18:19;;;;;;;70.90;30.67;;;6.00;99.90;;;;;;6204636;23;20016;-95
2022/01/14 05:20:45;;;;;;;68.18;34.60;;;5.90;99.90;;;;;;6231197;23;20011;-96
2022/01/14 05:23:12;;;;;;;63.47;30.90;;;6.00;99.90;;;;;;6229882;23;20012;-96
2022/01/14 05:25:37;;;;;;;74.10;35.40;;;6.00;99.90;;;;;;6227900;23;20016;-96
2022/01/14 05:28:03;;;;;;;59.97;27.90;;;6.00;99.90;;;;;;6200280;23;20073;-95
2022/01/14 05:30:29;;;;;;;62.97;31.70;;;6.00;99.90;;;;;;6198176;23;20027;-95
2022/01/14 05:32:56;;;;;;;70.10;32.80;;;6.00;99.90;;;;;;6196819;23;20020;-96
2022/01/14 05:35:26;;;;;;;65.43;32.13;;;6.00;99.90;;;;;;6196742;23;20039;-95
2022/01/14 05:37:52;;;;;;;69.07;32.10;;;6.00;99.90;;;;;;6200725;23;20189;-96
2022/01/14 05:40:20;;;;;;;63.13;29.00;;;5.80;99.90;;;;;;6214526;23;20016;-96
2022/01/14 05:42:46;;;;;;;60.65;28.73;;;5.90;99.90;;;;;;6221646;23;20028;-96
2022/01/14 05:45:14;;;;;;;67.15;33.25;;;5.90;99.90;;;;;;6225285;23;20058;-96
2022/01/14 05:47:40;;;;;;;62.83;31.60;;;6.00;99.90;;;;;;6228772;23;20448;-96
2022/01/14 05:50:11;;;;;;;63.47;32.58;;;5.90;99.90;;;;;;6228513;23;20028;-95
2022/01/14 05:52:37;;;;;;;64.22;31.40;;;6.00;99.90;;;;;;6222817;23;20083;-96
2022/01/14 05:55:03;;;;;;;58.53;32.38;;;5.90;99.90;;;;;;6254420;23;20031;-96
2022/01/14 05:57:30;;;;;;;58.17;28.90;;;5.90;99.90;;;;;;6252991;23;20042;-95
2022/01/14 05:59:56;;;;;;;55.80;31.95;;;5.90;99.90;;;;;;6223525;23;20096;-96
2022/01/14 06:02:22;;;;;;;53.33;28.60;;;5.90;99.90;;;;;;6223840;23;20020;-96
2022/01/14 06:04:48;;;;;;;55.85;32.20;;;5.90;99.90;;;;;;6249144;23;20012;-96
2022/01/14 06:07:13;;;;;;;56.17;33.17;;;5.90;99.90;;;;;;6227429;23;20026;-96
2022/01/14 06:09:39;;;;;;;53.58;29.80;;;5.90;99.90;;;;;;6222782;23;20047;-96
2022/01/14 06:12:05;;;;;;;54.13;31.85;;;5.90;99.90;;;;;;6223147;23;20058;-96
2022/01/14 06:14:31;;;;;;;54.40;31.88;;;5.90;99.90;;;;;;6218793;23;20091;-96
2022/01/14 06:16:58;;;;;;;54.10;32.00;;;5.90;99.90;;;;;;6250359;23;20028;-95
2022/01/14 06:19:27;;;;;;;55.03;31.98;;;5.90;99.90;;;;;;6222877;23;20016;-96
2022/01/14 06:21:53;;;;;;;51.80;30.45;;;5.90;99.90;;;;;;6217982;23;20388;-95
2022/01/14 06:24:18;;;;;;;47.35;27.90;;;5.90;99.90;;;;;;6224155;23;20012;-96
2022/01/14 06:26:44;;;;;;;48.92;30.85;;;5.90;99.90;;;;;;6247705;23;20186;-96
2022/01/14 06:29:09;;;;;;;44.38;26.50;;;5.90;99.90;;;;;;6223931;23;20040;-95
2022/01/14 06:31:35;;;;;;;52.88;30.17;;;5.80;99.90;;;;;;6222622;23;20063;-95
2022/01/14 06:34:01;;;;;;;47.65;30.65;;;6.00;99.90;;;;;;6220113;23;20016;-96
2022/01/14 06:36:26;;;;;;;45.65;27.27;;;6.00;99.90;;;;;;6216147;23;20023;-96
2022/01/14 06:38:52;;;;;;;41.72;29.17;;;6.00;99.90;;;;;;6228900;23;20024;-94
2022/01/14 06:41:18;;;;;;;39.97;27.38;;;6.00;99.90;;;;;;6223777;23;20067;-94
2022/01/14 06:43:44;;;;;;;47.25;28.98;;;6.00;99.90;;;;;;6220875;23;20016;-96
2022/01/14 06:46:13;;;;;;;44.05;26.52;;;6.00;99.90;;;;;;6231799;23;20016;-94
2022/01/14 06:48:38;;;;;;;40.97;27.77;;;6.00;99.90;;;;;;6229196;23;20016;-94
2022/01/14 06:51:04;;;;;;;40.65;26.67;;;6.10;99.90;;;;;;6230008;23;20054;-96
2022/01/14 06:53:30;;;;;;;40.90;28.58;;;6.10;99.90;;;;;;6231486;23;20016;-96
2022/01/14 06:55:56;;;;;;;40.75;27.73;;;6.10;99.90;;;;;;6249666;23;20016;-96
2022/01/14 06:58:21;;;;;;;38.78;25.38;;;6.10;99.90;;;;;;6221850;23;20067;-95
2022/01/14 07:00:47;;;;;;;41.13;28.60;;;6.10;99.90;;;;;;6226493;23;20016;-96
2022/01/14 07:03:12;;;;;;;43.10;28.70;;;6.10;99.90;;;;;;6230100;23;20016;-96
2022/01/14 07:05:38;;;;;;;40.25;28.42;;;6.20;99.90;;;;;;6258465;23;20196;-96
2022/01/14 07:08:04;;;;;;;43.58;27.20;;;6.20;99.90;;;;;;6254637;22;20027;-96
2022/01/14 07:10:35;;;;;;;41.15;26.45;;;6.20;99.90;;;;;;6255459;23;20012;-96
2022/01/14 07:13:01;;;;;;;40.92;28.13;;;6.00;99.90;;;;;;6233627;23;20038;-96
2022/01/14 07:15:26;;;;;;;44.03;27.38;;;6.10;99.90;;;;;;6230896;23;20426;-96
2022/01/14 07:17:52;;;;;;;41.13;26.15;;;6.10;99.90;;;;;;6254935;23;20030;-96
2022/01/14 07:20:18;;;;;;;42.33;29.15;;;6.10;99.90;;;;;;6227099;23;20025;-96
2022/01/14 07:22:46;;;;;;;43.10;27.67;;;6.10;99.90;;;;;;6222896;23;20038;-95
2022/01/14 07:25:13;;;;;;;39.78;28.15;;;6.10;99.90;;;;;;6225971;23;20016;-96
2022/01/14 07:27:39;;;;;;;43.90;26.38;;;6.10;99.90;;;;;;6225238;23;20020;-95
2022/01/14 07:30:06;;;;;;;39.60;28.27;;;6.10;99.90;;;;;;6241921;23;20072;-95
2022/01/14 07:32:32;;;;;;;41.65;29.05;;;6.10;99.90;;;;;;6245347;23;20019;-96
2022/01/14 07:34:58;;;;;;;40.90;29.15;;;6.10;99.90;;;;;;6246236;23;20098;-96
2022/01/14 07:37:27;;;;;;;39.83;26.73;;;6.20;99.90;;;;;;6269321;22;20008;-95
2022/01/14 07:39:52;;;;;;;41.90;27.88;;;6.10;99.90;;;;;;6264457;22;20024;-95
2022/01/14 07:42:18;;;;;;;41.28;26.35;;;6.20;99.90;;;;;;6240289;22;20031;-94
2022/01/14 07:44:44;;;;;;;40.47;29.38;;;6.10;99.90;;;;;;6246041;22;20349;-95
2022/01/14 07:47:10;;;;;;;41.92;27.95;;;6.20;99.90;;;;;;6262968;23;20008;-94
2022/01/14 07:49:36;;;;;;;39.97;28.33;;;6.20;99.90;;;;;;6223265;23;20085;-96
2022/01/14 07:52:02;;;;;;;42.90;28.95;;;6.20;99.90;;;;;;6221272;23;20389;-94
2022/01/14 07:54:27;;;;;;;42.05;28.08;;;6.20;99.90;;;;;;6244436;23;20320;-95
2022/01/14 07:56:57;;;;;;;41.10;27.83;;;6.20;99.90;;;;;;6220727;23;20054;-96
2022/01/14 07:59:25;;;;;;;38.75;28.60;;;6.20;99.90;;;;;;6218560;23;20018;-95
2022/01/14 08:01:55;;;;;;;39.88;27.15;;;6.20;99.90;;;;;;6221315;23;20024;-96
2022/01/14 08:04:21;;;;;;;38.20;27.40;;;6.20;99.90;;;;;;6253856;22;20016;-96
2022/01/14 08:06:49;;;;;;;40.03;25.08;;;6.20;99.90;;;;;;6250052;23;20434;-96
2022/01/14 08:09:17;;;;;;;36.63;26.35;;;6.20;99.90;;;;;;6254028;23;20016;-94
2022/01/14 08:11:43;;;;;;;40.10;24.98;;;6.20;99.90;;;;;;6221459;23;20016;-92
2022/01/14 08:14:09;;;;;;;34.88;25.38;;;6.20;99.90;;;;;;6243378;23;20070;-91
2022/01/14 08:16:35;;;;;;;39.63;24.80;;;6.30;99.90;;;;;;6242472;23;20073;-92
2022/01/14 08:19:01;;;;;;;39.72;27.30;;;6.30;99.90;;;;;;6240439;23;20448;-94
2022/01/14 08:21:26;;;;;;;36.17;25.65;;;6.30;99.90;;;;;;6216948;23;20218;-91
2022/01/14 08:23:52;;;;;;;36.72;25.30;;;6.30;99.90;;;;;;6217865;23;20027;-93
2022/01/14 08:26:18;;;;;;;37.60;26.33;;;6.30;99.90;;;;;;6243124;23;20066;-92
2022/01/14 08:28:44;;;;;;;34.63;24.60;;;6.40;99.90;;;;;;6242733;23;20030;-93
2022/01/14 08:31:09;;;;;;;33.38;24.52;;;6.40;99.90;;;;;;6218047;23;20106;-92
2022/01/14 08:33:35;;;;;;;33.35;24.00;;;6.40;99.90;;;;;;6240999;23;20023;-93
2022/01/14 08:36:01;;;;;;;34.75;25.75;;;6.50;99.90;;;;;;6217561;23;20018;-93
2022/01/14 08:38:27;;;;;;;34.85;25.73;;;6.50;99.90;;;;;;6242262;22;20012;-93
2022/01/14 08:40:53;;;;;;;33.80;23.05;;;6.50;99.90;;;;;;6217664;23;20028;-93
2022/01/14 08:43:19;;;;;;;40.60;25.98;;;6.50;99.90;;;;;;6218102;23;20078;-93
2022/01/14 08:45:45;;;;;;;31.65;24.88;;;6.50;99.90;;;;;;6216782;23;20023;-94
2022/01/14 08:48:11;;;;;;;33.88;23.40;;;6.50;99.90;;;;;;6216556;23;20016;-94
2022/01/14 08:50:38;;;;;;;33.92;24.20;;;6.60;99.90;;;;;;6216872;23;20011;-93
2022/01/14 08:53:07;;;;;;;32.90;23.20;;;6.60;99.90;;;;;;6217219;23;20020;-93
2022/01/14 08:55:34;;;;;;;33.83;23.25;;;6.50;99.90;;;;;;6216525;23;20016;-92
2022/01/14 08:58:00;;;;;;;33.58;23.10;;;6.60;99.90;;;;;;6192831;23;20024;-93
2022/01/14 09:00:26;;;;;;;30.33;21.98;;;6.70;99.90;;;;;;6191872;23;20058;-93
2022/01/14 09:02:53;;;;;;;30.40;22.17;;;6.70;99.90;;;;;;6216770;23;20024;-92
2022/01/14 09:05:19;;;;;;;33.85;23.75;;;6.70;99.90;;;;;;6217196;23;20027;-94
2022/01/14 09:07:44;;;;;;;30.73;22.48;;;6.80;99.90;;;;;;6216819;23;20043;-92
2022/01/14 09:10:10;;;;;;;36.33;22.42;;;6.80;99.90;;;;;;6193716;23;20291;-93
2022/01/14 09:12:36;;;;;;;30.50;20.23;;;6.80;99.90;;;;;;6192034;23;20020;-95
2022/01/14 09:15:04;;;;;;;30.55;22.45;;;6.80;99.90;;;;;;6194014;23;20016;-92
2022/01/14 09:17:29;;;;;;;30.30;20.25;;;6.80;99.90;;;;;;6216266;23;20023;-92
2022/01/14 09:19:55;;;;;;;30.42;21.98;;;6.80;99.90;;;;;;6191610;23;20016;-92
2022/01/14 09:22:22;;;;;;;31.05;20.80;;;6.80;99.90;;;;;;6192692;23;20020;-91
2022/01/14 09:24:48;;;;;;;30.17;20.70;;;6.80;99.90;;;;;;6216729;23;20013;-92
2022/01/14 09:27:15;;;;;;;28.08;20.10;;;6.90;99.90;;;;;;6190971;23;20055;-92
2022/01/14 09:29:42;;;;;;;26.58;20.15;;;6.90;99.90;;;;;;6214307;23;20104;-92
2022/01/14 09:32:09;;;;;;;29.60;20.13;;;6.90;99.90;;;;;;6216704;23;20048;-92
2022/01/14 09:34:36;;;;;;;28.25;18.85;;;6.90;99.90;;;;;;6214673;23;20016;-92
2022/01/14 09:37:01;;;;;;;30.90;19.15;;;7.00;99.90;;;;;;6191121;23;20450;-92
2022/01/14 09:39:28;;;;;;;30.00;19.70;;;7.00;99.90;;;;;;6223569;23;20016;-91
2022/01/14 09:41:53;;;;;;;28.98;19.45;;;7.00;99.90;;;;;;6241272;23;20031;-91
2022/01/14 09:44:20;;;;;;;33.65;20.02;;;7.00;99.90;;;;;;6240309;23;20017;-92
2022/01/14 09:46:49;;;;;;;28.02;19.27;;;7.10;99.90;;;;;;6240393;23;20038;-92
2022/01/14 09:49:15;;;;;;;28.35;19.10;;;7.10;99.90;;;;;;6240655;23;20020;-92
2022/01/14 09:51:41;;;;;;;29.23;19.73;;;7.10;99.90;;;;;;6215043;23;20392;-93
2022/01/14 09:54:10;;;;;;;28.60;19.38;;;7.10;99.90;;;;;;6214123;23;20016;-92
2022/01/14 09:56:37;;;;;;;26.60;18.25;;;7.20;99.90;;;;;;6239644;23;20421;-92
2022/01/14 09:59:04;;;;;;;27.42;18.10;;;7.20;99.90;;;;;;6240369;23;20020;-92
2022/01/14 10:01:41;;;;;;;25.40;17.42;;;7.30;99.90;;;;;;6240420;23;20012;-92
2022/01/14 10:04:12;;;;;;;25.63;17.90;;;7.20;99.90;;;;;;6215417;23;20095;-92
2022/01/14 10:06:43;;;;;;;28.15;17.65;;;7.30;99.90;;;;;;6239580;23;20445;-90
2022/01/14 10:09:23;;;;;;;30.02;17.50;;;7.30;99.90;;;;;;6240876;23;20023;-92
2022/01/14 10:12:08;;;;;;;22.92;16.17;;;7.30;99.90;;;;;;6240999;23;20024;-90
2022/01/14 10:14:36;;;;;;;28.23;16.67;;;7.40;99.90;;;;;;6257676;23;20008;-89
2022/01/14 10:17:08;;;;;;;21.60;14.32;;;7.40;99.90;;;;;;6255969;23;20023;-92
2022/01/14 10:19:36;;;;;;;23.05;14.68;;;7.50;99.90;;;;;;6228048;23;20016;-91
2022/01/14 10:22:16;;;;;;;22.42;14.23;;;7.50;99.90;;;;;;6267375;22;20012;-89
2022/01/14 10:24:58;;;;;;;18.95;12.25;;;7.50;99.90;;;;;;6217495;23;20012;-91
2022/01/14 10:27:40;;;;;;;22.02;13.52;;;7.50;99.90;;;;;;6241377;23;20013;-90
2022/01/14 10:30:10;;;;;;;19.20;12.55;;;7.60;99.90;;;;;;6240513;23;20338;-92
2022/01/14 10:32:38;;;;;;;21.38;12.00;;;7.60;99.90;;;;;;6214082;23;20014;-91
2022/01/14 10:35:05;;;;;;;19.25;11.05;;;7.60;99.90;;;;;;6215163;23;20016;-91
2022/01/14 10:37:35;;;;;;;19.85;11.75;;;7.70;99.90;;;;;;6239467;23;20448;-91
2022/01/14 10:40:05;;;;;;;17.80;11.15;;;7.70;99.90;;;;;;6234836;22;20012;-91
2022/01/14 10:42:36;;;;;;;19.25;11.13;;;7.70;99.90;;;;;;6244892;22;20332;-93
2022/01/14 10:45:22;;;;;;;18.10;9.93;;;7.70;99.90;;;;;;6246027;22;20096;-93
2022/01/14 10:47:56;;;;;;;16.90;10.55;;;7.70;99.90;;;;;;6243705;22;20520;-90
2022/01/14 10:50:34;;;;;;;13.43;8.93;;;7.80;99.90;;;;;;6245377;22;20019;-91
2022/01/14 10:53:02;;;;;;;16.92;10.43;;;7.80;99.90;;;;;;6248121;22;20380;-93
2022/01/14 10:55:34;;;;;;;16.60;8.88;;;7.80;99.90;;;;;;6271595;22;20038;-91
2022/01/14 10:58:04;;;;;;;15.57;9.00;;;7.80;99.90;;;;;;6219806;22;20065;-93
2022/01/14 11:00:40;;;;;;;17.52;9.48;;;7.80;99.90;;;;;;6245046;22;20023;-92
2022/01/14 11:03:05;;;;;;;17.30;8.60;;;7.80;99.90;;;;;;6220251;22;20035;-92
2022/01/14 11:05:33;;;;;;;16.33;8.57;;;7.80;99.90;;;;;;6219385;22;20067;-92
2022/01/14 11:07:59;;;;;;;19.15;10.07;;;7.80;99.90;;;;;;6247284;22;20016;-91
2022/01/14 11:10:28;;;;;;;13.63;8.45;;;7.80;99.90;;;;;;6220571;22;20012;-92
2022/01/14 11:12:57;;;;;;;16.60;9.27;;;7.80;99.90;;;;;;6220722;22;20019;-91
2022/01/14 11:15:24;;;;;;;14.38;7.97;;;7.80;99.90;;;;;;6220933;22;20039;-92
2022/01/14 11:17:53;;;;;;;14.98;8.23;;;7.90;99.90;;;;;;6219746;22;20030;-91
2022/01/14 11:20:33;;;;;;;16.55;7.72;;;7.90;99.90;;;;;;6255114;22;20070;-92
2022/01/14 11:23:15;;;;;;;13.55;7.78;;;7.90;99.90;;;;;;6233061;22;20105;-88
2022/01/14 11:26:02;;;;;;;17.48;8.80;;;7.90;99.90;;;;;;6223596;22;20011;-91
2022/01/14 11:28:34;;;;;;;15.88;8.02;;;7.90;99.90;;;;;;6227905;22;20043;-90
2022/01/14 11:31:00;;;;;;;14.07;7.80;;;7.90;99.90;;;;;;6244766;22;20027;-91
2022/01/14 11:33:44;;;;;;;17.42;8.43;;;7.90;99.90;;;;;;6220029;22;20372;-92
2022/01/14 11:36:10;;;;;;;13.90;7.75;;;7.90;99.90;;;;;;6220930;22;20043;-93
2022/01/14 11:38:44;;;;;;;18.35;8.38;;;7.90;99.90;;;;;;6217473;22;20047;-92
2022/01/14 11:41:18;;;;;;;16.45;7.80;;;7.90;99.90;;;;;;6190486;23;20051;-91
2022/01/14 11:43:55;;;;;;;16.40;8.00;;;7.90;99.90;;;;;;6214695;23;20217;-93
2022/01/14 11:46:36;;;;;;;14.00;7.32;;;7.90;99.90;;;;;;6215502;23;20375;-90
2022/01/14 11:49:22;;;;;;;15.25;7.38;;;7.90;99.90;;;;;;6214463;23;20146;-89
2022/01/14 11:52:00;;;;;;;13.18;6.93;;;7.90;99.90;;;;;;6188654;23;20016;-90
2022/01/14 11:54:46;;;;;;;15.15;7.00;;;7.90;99.90;;;;;;6188477;23;20037;-90
2022/01/14 11:57:45;;;;;;;15.77;7.30;;;8.00;99.90;;;;;;6189643;23;20012;-92
2022/01/14 12:00:47;;;;;;;14.60;7.20;;;8.00;99.90;;;;;;6190909;23;20029;-93
2022/01/14 12:03:14;;;;;;;15.27;7.10;;;7.90;99.90;;;;;;6216812;23;20058;-94
2022/01/14 12:05:49;;;;;;;16.20;7.70;;;8.00;99.90;;;;;;6191752;23;20016;-92
2022/01/14 12:08:15;;;;;;;15.27;8.02;;;8.00;99.90;;;;;;6217325;23;20020;-93
2022/01/14 12:10:44;;;;;;;13.18;6.50;;;8.00;99.90;;;;;;6216629;23;20016;-94
2022/01/14 12:13:30;;;;;;;16.05;7.03;;;8.00;99.90;;;;;;6192505;23;20052;-95
2022/01/14 12:16:03;;;;;;;17.95;7.35;;;8.10;99.90;;;;;;6217761;23;20016;-92
2022/01/14 12:19:00;;;;;;;15.02;6.45;;;8.10;99.90;;;;;;6192033;23;20043;-93
2022/01/14 12:21:41;;;;;;;14.68;6.20;;;8.00;99.90;;;;;;6218715;23;20019;-93
2022/01/14 12:24:16;;;;;;;14.73;6.40;;;8.00;99.90;;;;;;6216491;23;20055;-96
2022/01/14 12:26:42;;;;;;;17.60;7.47;;;8.00;99.90;;;;;;6191979;23;20310;-94
2022/01/14 12:29:10;;;;;;;12.98;6.30;;;8.00;99.90;;;;;;6192240;23;20055;-92
2022/01/14 12:32:14;;;;;;;15.38;6.85;;;8.00;99.90;;;;;;6214699;23;20012;-93
2022/01/14 12:34:55;;;;;;;15.98;7.07;;;8.00;99.90;;;;;;6216368;23;20016;-93
2022/01/14 12:37:33;;;;;;;16.52;7.18;;;8.00;99.90;;;;;;6217431;23;20026;-94
2022/01/14 12:40:12;;;;;;;16.23;8.30;;;8.00;99.90;;;;;;6235841;22;20030;-95
2022/01/14 12:42:38;;;;;;;16.98;10.43;;;8.00;99.90;;;;;;6221745;22;20020;-94
2022/01/14 12:45:07;;;;;;;14.70;8.10;;;8.10;99.90;;;;;;6249598;22;20055;-92
2022/01/14 12:47:38;;;;;;;17.38;7.70;;;8.10;99.90;;;;;;6222208;22;20054;-93
2022/01/14 12:50:07;;;;;;;14.00;7.10;;;8.10;99.90;;;;;;6265417;22;20044;-92
2022/01/14 12:52:48;;;;;;;13.00;6.35;;;8.10;99.90;;;;;;6225746;22;20026;-91
2022/01/14 12:55:14;;;;;;;13.50;6.33;;;8.10;99.90;;;;;;6239499;22;20011;-94
2022/01/14 12:57:40;;;;;;;13.98;6.32;;;8.10;99.90;;;;;;6259524;22;20266;-92
2022/01/14 13:00:08;;;;;;;14.25;7.20;;;8.00;99.90;;;;;;6247042;22;20080;-93
2022/01/14 13:02:33;;;;;;;15.00;5.93;;;8.00;99.90;;;;;;6245767;22;20015;-92
2022/01/14 13:05:14;;;;;;;15.20;6.55;;;8.10;99.90;;;;;;6221557;22;20432;-94
2022/01/14 13:07:40;;;;;;;14.07;7.47;;;8.10;99.90;;;;;;6245638;22;20073;-93
2022/01/14 13:10:08;;;;;;;17.83;7.78;;;8.10;99.90;;;;;;6248712;22;20016;-92